sensor_id;sensor_type;location;lat;lon;timestamp;P1;durP1;ratioP1;P2;durP2;ratioP2
30818;SDS011;17546;42.674;23.284;2022-12-07T00:02:14;70.75;;;30.45;;
30818;SDS011;17546;42.674;23.284;2022-12-07T00:04:40;64.18;;;30.02;;
30818;SDS011;17546;42.674;23.284;2022-12-07T00:07:05;60.17;;;28.02;;
30818;SDS011;17546;42.674;23.284;2022-12-07T00:09:30;65.40;;;29.45;;
30818;SDS011;17546;42.674;23.284;2022-12-07T00:11:56;66.40;;;29.35;;
30818;SDS011;17546;42.674;23.284;2022-12-07T00:14:21;68.50;;;29.23;;
30818;SDS011;17546;42.674;23.284;2022-12-07T00:16:48;65.80;;;28.17;;
30818;SDS011;17546;42.674;23.284;2022-12-07T00:19:15;67.40;;;29.20;;
30818;SDS011;17546;42.674;23.284;2022-12-07T00:21:40;61.58;;;29.17;;
30818;SDS011;17546;42.674;23.284;2022-12-07T00:24:06;70.63;;;29.92;;
30818;SDS011;17546;42.674;23.284;2022-12-07T00:26:36;68.82;;;29.25;;
30818;SDS011;17546;42.674;23.284;2022-12-07T00:29:14;64.28;;;28.73;;
30818;SDS011;17546;42.674;23.284;2022-12-07T00:31:42;73.78;;;29.92;;
30818;SDS011;17546;42.674;23.284;2022-12-07T00:34:09;70.57;;;30.48;;
30818;SDS011;17546;42.674;23.284;2022-12-07T00:36:38;67.30;;;31.05;;
30818;SDS011;17546;42.674;23.284;2022-12-07T00:39:04;62.92;;;30.17;;
30818;SDS011;17546;42.674;23.284;2022-12-07T00:41:29;64.43;;;30.70;;
30818;SDS011;17546;42.674;23.284;2022-12-07T00:43:55;69.80;;;30.52;;
30818;SDS011;17546;42.674;23.284;2022-12-07T00:46:21;65.32;;;29.17;;
30818;SDS011;17546;42.674;23.284;2022-12-07T00:48:48;66.60;;;28.15;;
30818;SDS011;17546;42.674;23.284;2022-12-07T00:51:14;62.17;;;28.85;;
30818;SDS011;17546;42.674;23.284;2022-12-07T00:53:42;66.05;;;28.65;;
30818;SDS011;17546;42.674;23.284;2022-12-07T00:56:21;58.78;;;28.55;;
30818;SDS011;17546;42.674;23.284;2022-12-07T01:01:18;65.30;;;29.95;;
30818;SDS011;17546;42.674;23.284;2022-12-07T01:03:43;90.50;;;33.20;;
30818;SDS011;17546;42.674;23.284;2022-12-07T01:06:09;68.85;;;33.65;;
30818;SDS011;17546;42.674;23.284;2022-12-07T01:08:34;84.15;;;33.67;;
30818;SDS011;17546;42.674;23.284;2022-12-07T01:11:04;80.10;;;36.05;;
30818;SDS011;17546;42.674;23.284;2022-12-07T01:13:31;78.80;;;34.22;;
30818;SDS011;17546;42.674;23.284;2022-12-07T01:16:14;79.85;;;33.42;;
30818;SDS011;17546;42.674;23.284;2022-12-07T01:18:40;79.25;;;33.88;;
30818;SDS011;17546;42.674;23.284;2022-12-07T01:21:08;74.30;;;31.60;;
30818;SDS011;17546;42.674;23.284;2022-12-07T01:23:38;72.57;;;31.92;;
30818;SDS011;17546;42.674;23.284;2022-12-07T01:26:05;66.82;;;31.48;;
30818;SDS011;17546;42.674;23.284;2022-12-07T01:28:32;63.05;;;28.55;;
30818;SDS011;17546;42.674;23.284;2022-12-07T01:31:03;61.22;;;29.17;;
30818;SDS011;17546;42.674;23.284;2022-12-07T01:33:32;70.28;;;30.25;;
30818;SDS011;17546;42.674;23.284;2022-12-07T01:38:58;72.72;;;30.45;;
30818;SDS011;17546;42.674;23.284;2022-12-07T01:41:26;64.63;;;28.08;;
30818;SDS011;17546;42.674;23.284;2022-12-07T01:44:07;66.30;;;29.75;;
30818;SDS011;17546;42.674;23.284;2022-12-07T01:46:53;70.38;;;29.77;;
30818;SDS011;17546;42.674;23.284;2022-12-07T01:49:22;61.42;;;28.52;;
30818;SDS011;17546;42.674;23.284;2022-12-07T01:52:27;57.20;;;28.10;;
30818;SDS011;17546;42.674;23.284;2022-12-07T01:55:02;67.15;;;28.88;;
30818;SDS011;17546;42.674;23.284;2022-12-07T01:57:31;61.65;;;28.98;;
30818;SDS011;17546;42.674;23.284;2022-12-07T01:59:59;65.35;;;27.83;;
30818;SDS011;17546;42.674;23.284;2022-12-07T02:02:26;63.75;;;29.30;;
30818;SDS011;17546;42.674;23.284;2022-12-07T02:04:57;54.85;;;27.23;;
30818;SDS011;17546;42.674;23.284;2022-12-07T02:07:32;58.30;;;26.48;;
30818;SDS011;17546;42.674;23.284;2022-12-07T02:10:14;54.00;;;27.05;;
30818;SDS011;17546;42.674;23.284;2022-12-07T02:12:44;66.57;;;27.60;;
30818;SDS011;17546;42.674;23.284;2022-12-07T02:15:12;60.20;;;27.40;;
30818;SDS011;17546;42.674;23.284;2022-12-07T02:21:11;60.47;;;26.38;;
30818;SDS011;17546;42.674;23.284;2022-12-07T02:31:29;61.40;;;26.02;;
30818;SDS011;17546;42.674;23.284;2022-12-07T02:34:07;57.47;;;25.75;;
30818;SDS011;17546;42.674;23.284;2022-12-07T02:36:39;54.72;;;24.85;;
30818;SDS011;17546;42.674;23.284;2022-12-07T02:39:15;54.72;;;26.48;;
30818;SDS011;17546;42.674;23.284;2022-12-07T02:41:48;63.50;;;27.23;;
30818;SDS011;17546;42.674;23.284;2022-12-07T02:44:27;62.67;;;26.65;;
30818;SDS011;17546;42.674;23.284;2022-12-07T02:46:55;64.53;;;27.40;;
30818;SDS011;17546;42.674;23.284;2022-12-07T02:49:26;62.33;;;27.60;;
30818;SDS011;17546;42.674;23.284;2022-12-07T02:51:53;57.92;;;26.10;;
30818;SDS011;17546;42.674;23.284;2022-12-07T02:54:20;64.07;;;26.33;;
30818;SDS011;17546;42.674;23.284;2022-12-07T03:13:06;55.78;;;24.23;;
30818;SDS011;17546;42.674;23.284;2022-12-07T03:15:45;61.20;;;25.50;;
30818;SDS011;17546;42.674;23.284;2022-12-07T03:18:16;49.55;;;23.77;;
30818;SDS011;17546;42.674;23.284;2022-12-07T03:20:45;52.85;;;24.42;;
30818;SDS011;17546;42.674;23.284;2022-12-07T03:23:16;53.42;;;24.95;;
30818;SDS011;17546;42.674;23.284;2022-12-07T03:25:45;57.10;;;25.20;;
30818;SDS011;17546;42.674;23.284;2022-12-07T03:28:15;52.47;;;24.67;;
30818;SDS011;17546;42.674;23.284;2022-12-07T03:36:33;55.03;;;24.73;;
30818;SDS011;17546;42.674;23.284;2022-12-07T03:41:44;59.92;;;25.58;;
30818;SDS011;17546;42.674;23.284;2022-12-07T03:44:10;53.20;;;24.88;;
30818;SDS011;17546;42.674;23.284;2022-12-07T03:46:41;53.80;;;24.17;;
30818;SDS011;17546;42.674;23.284;2022-12-07T03:54:58;52.38;;;25.75;;
30818;SDS011;17546;42.674;23.284;2022-12-07T03:57:29;65.50;;;26.50;;
30818;SDS011;17546;42.674;23.284;2022-12-07T03:59:57;63.28;;;27.02;;
30818;SDS011;17546;42.674;23.284;2022-12-07T04:02:25;56.28;;;25.67;;
30818;SDS011;17546;42.674;23.284;2022-12-07T04:04:52;56.30;;;26.25;;
30818;SDS011;17546;42.674;23.284;2022-12-07T04:07:19;55.38;;;26.35;;
30818;SDS011;17546;42.674;23.284;2022-12-07T04:09:44;60.45;;;27.02;;
30818;SDS011;17546;42.674;23.284;2022-12-07T04:12:09;59.88;;;26.77;;
30818;SDS011;17546;42.674;23.284;2022-12-07T04:14:35;62.60;;;29.13;;
30818;SDS011;17546;42.674;23.284;2022-12-07T04:17:00;60.80;;;28.50;;
30818;SDS011;17546;42.674;23.284;2022-12-07T04:19:26;67.90;;;28.17;;
30818;SDS011;17546;42.674;23.284;2022-12-07T04:21:57;64.28;;;27.92;;
30818;SDS011;17546;42.674;23.284;2022-12-07T04:24:25;67.80;;;30.10;;
30818;SDS011;17546;42.674;23.284;2022-12-07T04:26:50;62.55;;;29.13;;
30818;SDS011;17546;42.674;23.284;2022-12-07T04:29:16;69.38;;;30.00;;
30818;SDS011;17546;42.674;23.284;2022-12-07T04:31:42;72.45;;;29.30;;
30818;SDS011;17546;42.674;23.284;2022-12-07T04:34:08;59.70;;;28.20;;
30818;SDS011;17546;42.674;23.284;2022-12-07T04:36:34;63.78;;;28.60;;
30818;SDS011;17546;42.674;23.284;2022-12-07T04:39:00;59.10;;;28.52;;
30818;SDS011;17546;42.674;23.284;2022-12-07T04:41:26;58.00;;;28.17;;
30818;SDS011;17546;42.674;23.284;2022-12-07T04:43:53;60.72;;;28.65;;
30818;SDS011;17546;42.674;23.284;2022-12-07T04:46:22;58.85;;;27.50;;
30818;SDS011;17546;42.674;23.284;2022-12-07T04:48:49;57.63;;;27.48;;
30818;SDS011;17546;42.674;23.284;2022-12-07T04:51:25;60.80;;;29.00;;
30818;SDS011;17546;42.674;23.284;2022-12-07T04:53:55;63.00;;;28.48;;
30818;SDS011;17546;42.674;23.284;2022-12-07T04:56:21;63.53;;;28.30;;
30818;SDS011;17546;42.674;23.284;2022-12-07T04:58:48;63.17;;;28.50;;
30818;SDS011;17546;42.674;23.284;2022-12-07T05:01:14;67.85;;;28.85;;
30818;SDS011;17546;42.674;23.284;2022-12-07T05:03:40;57.22;;;28.52;;
30818;SDS011;17546;42.674;23.284;2022-12-07T05:06:06;62.45;;;28.55;;
30818;SDS011;17546;42.674;23.284;2022-12-07T05:08:32;65.43;;;28.23;;
30818;SDS011;17546;42.674;23.284;2022-12-07T05:10:59;64.25;;;27.67;;
30818;SDS011;17546;42.674;23.284;2022-12-07T05:13:25;58.70;;;26.80;;
30818;SDS011;17546;42.674;23.284;2022-12-07T05:15:50;56.33;;;25.92;;
30818;SDS011;17546;42.674;23.284;2022-12-07T05:18:16;61.00;;;26.73;;
30818;SDS011;17546;42.674;23.284;2022-12-07T05:20:42;56.65;;;27.25;;
30818;SDS011;17546;42.674;23.284;2022-12-07T05:23:08;57.72;;;26.50;;
30818;SDS011;17546;42.674;23.284;2022-12-07T05:25:33;60.60;;;26.33;;
30818;SDS011;17546;42.674;23.284;2022-12-07T05:27:59;61.20;;;26.38;;
30818;SDS011;17546;42.674;23.284;2022-12-07T05:30:25;57.63;;;25.55;;
30818;SDS011;17546;42.674;23.284;2022-12-07T05:32:51;59.72;;;27.17;;
30818;SDS011;17546;42.674;23.284;2022-12-07T05:35:17;61.08;;;26.75;;
30818;SDS011;17546;42.674;23.284;2022-12-07T05:37:43;58.90;;;26.77;;
30818;SDS011;17546;42.674;23.284;2022-12-07T05:40:08;58.30;;;26.05;;
30818;SDS011;17546;42.674;23.284;2022-12-07T05:42:34;58.67;;;26.92;;
30818;SDS011;17546;42.674;23.284;2022-12-07T05:45:00;53.97;;;25.27;;
30818;SDS011;17546;42.674;23.284;2022-12-07T05:47:25;53.60;;;25.80;;
30818;SDS011;17546;42.674;23.284;2022-12-07T05:49:51;58.45;;;26.42;;
30818;SDS011;17546;42.674;23.284;2022-12-07T05:52:16;62.55;;;26.80;;
30818;SDS011;17546;42.674;23.284;2022-12-07T05:54:41;65.35;;;27.67;;
30818;SDS011;17546;42.674;23.284;2022-12-07T05:57:07;62.10;;;27.13;;
30818;SDS011;17546;42.674;23.284;2022-12-07T05:59:33;59.90;;;26.98;;
30818;SDS011;17546;42.674;23.284;2022-12-07T06:02:00;60.47;;;27.40;;
30818;SDS011;17546;42.674;23.284;2022-12-07T06:04:31;67.90;;;30.38;;
30818;SDS011;17546;42.674;23.284;2022-12-07T06:06:58;60.38;;;28.33;;
30818;SDS011;17546;42.674;23.284;2022-12-07T06:09:24;59.38;;;27.80;;
30818;SDS011;17546;42.674;23.284;2022-12-07T06:11:51;64.45;;;27.05;;
30818;SDS011;17546;42.674;23.284;2022-12-07T06:14:35;125.93;;;29.10;;
30818;SDS011;17546;42.674;23.284;2022-12-07T06:17:01;70.30;;;27.45;;
30818;SDS011;17546;42.674;23.284;2022-12-07T06:19:27;67.28;;;28.83;;
30818;SDS011;17546;42.674;23.284;2022-12-07T06:21:52;69.47;;;29.10;;
30818;SDS011;17546;42.674;23.284;2022-12-07T06:24:18;62.15;;;28.15;;
30818;SDS011;17546;42.674;23.284;2022-12-07T06:26:44;66.35;;;28.52;;
30818;SDS011;17546;42.674;23.284;2022-12-07T06:29:10;68.25;;;29.02;;
30818;SDS011;17546;42.674;23.284;2022-12-07T06:31:36;70.13;;;30.05;;
30818;SDS011;17546;42.674;23.284;2022-12-07T06:37:23;73.20;;;31.38;;
30818;SDS011;17546;42.674;23.284;2022-12-07T06:43:10;70.97;;;30.60;;
30818;SDS011;17546;42.674;23.284;2022-12-07T06:45:36;75.72;;;32.17;;
30818;SDS011;17546;42.674;23.284;2022-12-07T06:48:01;79.85;;;36.40;;
30818;SDS011;17546;42.674;23.284;2022-12-07T06:57:10;78.03;;;34.03;;
30818;SDS011;17546;42.674;23.284;2022-12-07T06:59:36;72.53;;;33.63;;
30818;SDS011;17546;42.674;23.284;2022-12-07T07:02:01;91.55;;;39.78;;
30818;SDS011;17546;42.674;23.284;2022-12-07T07:04:26;98.13;;;40.88;;
30818;SDS011;17546;42.674;23.284;2022-12-07T07:06:52;90.28;;;40.80;;
30818;SDS011;17546;42.674;23.284;2022-12-07T07:12:39;88.03;;;37.90;;
30818;SDS011;17546;42.674;23.284;2022-12-07T07:15:05;92.80;;;37.75;;
30818;SDS011;17546;42.674;23.284;2022-12-07T07:17:30;90.05;;;39.58;;
30818;SDS011;17546;42.674;23.284;2022-12-07T07:19:56;92.85;;;39.50;;
30818;SDS011;17546;42.674;23.284;2022-12-07T07:22:21;97.00;;;42.35;;
30818;SDS011;17546;42.674;23.284;2022-12-07T07:24:47;100.28;;;43.65;;
30818;SDS011;17546;42.674;23.284;2022-12-07T07:27:12;95.20;;;43.40;;
30818;SDS011;17546;42.674;23.284;2022-12-07T07:29:37;98.35;;;45.00;;
30818;SDS011;17546;42.674;23.284;2022-12-07T07:35:25;107.22;;;47.47;;
30818;SDS011;17546;42.674;23.284;2022-12-07T07:37:56;112.63;;;48.15;;
30818;SDS011;17546;42.674;23.284;2022-12-07T07:40:22;109.65;;;46.35;;
30818;SDS011;17546;42.674;23.284;2022-12-07T07:42:49;103.00;;;45.45;;
30818;SDS011;17546;42.674;23.284;2022-12-07T07:45:15;95.38;;;44.42;;
30818;SDS011;17546;42.674;23.284;2022-12-07T07:47:40;90.18;;;41.17;;
30818;SDS011;17546;42.674;23.284;2022-12-07T07:50:06;96.10;;;41.40;;
30818;SDS011;17546;42.674;23.284;2022-12-07T07:52:32;93.95;;;39.63;;
30818;SDS011;17546;42.674;23.284;2022-12-07T07:54:57;92.40;;;41.00;;
30818;SDS011;17546;42.674;23.284;2022-12-07T07:57:23;88.10;;;38.78;;
30818;SDS011;17546;42.674;23.284;2022-12-07T07:59:48;86.47;;;40.08;;
30818;SDS011;17546;42.674;23.284;2022-12-07T08:02:17;80.13;;;37.50;;
30818;SDS011;17546;42.674;23.284;2022-12-07T08:04:44;79.03;;;36.28;;
30818;SDS011;17546;42.674;23.284;2022-12-07T08:07:10;90.82;;;38.88;;
30818;SDS011;17546;42.674;23.284;2022-12-07T08:09:36;81.10;;;37.15;;
30818;SDS011;17546;42.674;23.284;2022-12-07T08:12:02;84.40;;;38.30;;
30818;SDS011;17546;42.674;23.284;2022-12-07T08:14:28;89.35;;;39.88;;
30818;SDS011;17546;42.674;23.284;2022-12-07T08:16:54;85.57;;;38.55;;
30818;SDS011;17546;42.674;23.284;2022-12-07T08:19:19;89.00;;;38.85;;
30818;SDS011;17546;42.674;23.284;2022-12-07T08:21:44;86.88;;;39.08;;
30818;SDS011;17546;42.674;23.284;2022-12-07T08:24:10;84.15;;;38.10;;
30818;SDS011;17546;42.674;23.284;2022-12-07T08:26:35;87.25;;;38.25;;
30818;SDS011;17546;42.674;23.284;2022-12-07T08:29:00;85.97;;;37.83;;
30818;SDS011;17546;42.674;23.284;2022-12-07T08:31:26;79.25;;;37.05;;
30818;SDS011;17546;42.674;23.284;2022-12-07T08:33:52;83.68;;;37.45;;
30818;SDS011;17546;42.674;23.284;2022-12-07T08:36:18;92.88;;;39.28;;
30818;SDS011;17546;42.674;23.284;2022-12-07T08:38:44;92.00;;;38.67;;
30818;SDS011;17546;42.674;23.284;2022-12-07T08:41:09;82.38;;;37.63;;
30818;SDS011;17546;42.674;23.284;2022-12-07T08:43:35;86.45;;;38.25;;
30818;SDS011;17546;42.674;23.284;2022-12-07T08:46:17;81.05;;;37.85;;
30818;SDS011;17546;42.674;23.284;2022-12-07T08:48:54;82.43;;;39.53;;
30818;SDS011;17546;42.674;23.284;2022-12-07T08:51:23;89.53;;;38.75;;
30818;SDS011;17546;42.674;23.284;2022-12-07T08:53:52;92.88;;;39.63;;
30818;SDS011;17546;42.674;23.284;2022-12-07T08:56:19;93.30;;;39.97;;
30818;SDS011;17546;42.674;23.284;2022-12-07T08:58:46;92.63;;;40.55;;
30818;SDS011;17546;42.674;23.284;2022-12-07T09:01:12;86.13;;;39.40;;
30818;SDS011;17546;42.674;23.284;2022-12-07T09:03:37;88.53;;;39.13;;
30818;SDS011;17546;42.674;23.284;2022-12-07T09:06:03;86.82;;;39.42;;
30818;SDS011;17546;42.674;23.284;2022-12-07T09:08:33;92.35;;;40.47;;
30818;SDS011;17546;42.674;23.284;2022-12-07T09:11:01;92.13;;;40.17;;
30818;SDS011;17546;42.674;23.284;2022-12-07T09:13:26;92.22;;;41.50;;
30818;SDS011;17546;42.674;23.284;2022-12-07T09:15:52;91.28;;;40.72;;
30818;SDS011;17546;42.674;23.284;2022-12-07T09:18:17;94.93;;;37.55;;
30818;SDS011;17546;42.674;23.284;2022-12-07T09:20:43;81.90;;;38.10;;
30818;SDS011;17546;42.674;23.284;2022-12-07T09:23:08;87.65;;;35.75;;
30818;SDS011;17546;42.674;23.284;2022-12-07T09:25:34;74.30;;;35.10;;
30818;SDS011;17546;42.674;23.284;2022-12-07T09:28:07;76.22;;;33.40;;
30818;SDS011;17546;42.674;23.284;2022-12-07T09:30:33;74.05;;;33.22;;
30818;SDS011;17546;42.674;23.284;2022-12-07T09:32:59;79.18;;;34.83;;
30818;SDS011;17546;42.674;23.284;2022-12-07T09:35:24;76.22;;;34.38;;
30818;SDS011;17546;42.674;23.284;2022-12-07T09:37:50;73.53;;;33.75;;
30818;SDS011;17546;42.674;23.284;2022-12-07T09:40:16;88.13;;;34.70;;
30818;SDS011;17546;42.674;23.284;2022-12-07T09:42:53;96.30;;;34.72;;
30818;SDS011;17546;42.674;23.284;2022-12-07T09:45:24;80.00;;;33.45;;
30818;SDS011;17546;42.674;23.284;2022-12-07T09:47:58;81.18;;;32.13;;
30818;SDS011;17546;42.674;23.284;2022-12-07T09:50:25;75.35;;;34.35;;
30818;SDS011;17546;42.674;23.284;2022-12-07T09:52:52;85.55;;;33.08;;
30818;SDS011;17546;42.674;23.284;2022-12-07T09:55:22;85.60;;;33.80;;
30818;SDS011;17546;42.674;23.284;2022-12-07T09:57:52;74.18;;;31.52;;
30818;SDS011;17546;42.674;23.284;2022-12-07T10:00:19;76.55;;;32.63;;
30818;SDS011;17546;42.674;23.284;2022-12-07T10:05:26;67.57;;;31.05;;
30818;SDS011;17546;42.674;23.284;2022-12-07T10:07:55;76.07;;;30.35;;
30818;SDS011;17546;42.674;23.284;2022-12-07T10:10:24;70.40;;;30.73;;
30818;SDS011;17546;42.674;23.284;2022-12-07T10:15:41;65.30;;;29.70;;
30818;SDS011;17546;42.674;23.284;2022-12-07T10:31:40;67.10;;;30.35;;
30818;SDS011;17546;42.674;23.284;2022-12-07T10:34:14;69.82;;;30.35;;
30818;SDS011;17546;42.674;23.284;2022-12-07T10:36:47;65.75;;;27.65;;
30818;SDS011;17546;42.674;23.284;2022-12-07T10:39:17;62.35;;;28.85;;
30818;SDS011;17546;42.674;23.284;2022-12-07T10:41:53;76.88;;;28.85;;
30818;SDS011;17546;42.674;23.284;2022-12-07T10:44:49;66.93;;;28.05;;
30818;SDS011;17546;42.674;23.284;2022-12-07T10:47:20;63.70;;;28.23;;
30818;SDS011;17546;42.674;23.284;2022-12-07T10:52:46;72.63;;;28.50;;
30818;SDS011;17546;42.674;23.284;2022-12-07T11:01:20;71.90;;;28.63;;
30818;SDS011;17546;42.674;23.284;2022-12-07T11:12:29;63.35;;;24.63;;
30818;SDS011;17546;42.674;23.284;2022-12-07T11:37:15;56.40;;;23.63;;
30818;SDS011;17546;42.674;23.284;2022-12-07T11:39:53;62.33;;;22.95;;
30818;SDS011;17546;42.674;23.284;2022-12-07T11:42:25;48.85;;;22.88;;
30818;SDS011;17546;42.674;23.284;2022-12-07T11:44:57;53.50;;;21.92;;
30818;SDS011;17546;42.674;23.284;2022-12-07T11:47:50;48.67;;;21.92;;
30818;SDS011;17546;42.674;23.284;2022-12-07T11:50:42;54.00;;;22.40;;
30818;SDS011;17546;42.674;23.284;2022-12-07T11:53:16;51.60;;;21.60;;
30818;SDS011;17546;42.674;23.284;2022-12-07T12:00:46;44.63;;;20.88;;
30818;SDS011;17546;42.674;23.284;2022-12-07T12:03:15;46.53;;;21.27;;
30818;SDS011;17546;42.674;23.284;2022-12-07T12:05:58;43.85;;;21.42;;
30818;SDS011;17546;42.674;23.284;2022-12-07T12:13:49;56.53;;;23.70;;
30818;SDS011;17546;42.674;23.284;2022-12-07T12:22:28;54.67;;;22.58;;
30818;SDS011;17546;42.674;23.284;2022-12-07T12:25:16;47.47;;;20.75;;
30818;SDS011;17546;42.674;23.284;2022-12-07T12:27:53;37.75;;;18.35;;
30818;SDS011;17546;42.674;23.284;2022-12-07T12:32:51;36.15;;;17.50;;
30818;SDS011;17546;42.674;23.284;2022-12-07T12:37:54;46.75;;;19.23;;
30818;SDS011;17546;42.674;23.284;2022-12-07T12:42:49;50.63;;;19.48;;
30818;SDS011;17546;42.674;23.284;2022-12-07T12:50:22;48.58;;;20.55;;
30818;SDS011;17546;42.674;23.284;2022-12-07T13:01:42;47.78;;;20.90;;
30818;SDS011;17546;42.674;23.284;2022-12-07T13:04:21;48.60;;;20.33;;
30818;SDS011;17546;42.674;23.284;2022-12-07T13:06:50;40.00;;;19.75;;
30818;SDS011;17546;42.674;23.284;2022-12-07T13:09:34;45.50;;;20.15;;
30818;SDS011;17546;42.674;23.284;2022-12-07T13:12:02;45.13;;;20.50;;
30818;SDS011;17546;42.674;23.284;2022-12-07T13:17:11;51.22;;;20.42;;
30818;SDS011;17546;42.674;23.284;2022-12-07T13:20:04;48.20;;;21.40;;
30818;SDS011;17546;42.674;23.284;2022-12-07T13:25:18;46.63;;;21.10;;
30818;SDS011;17546;42.674;23.284;2022-12-07T13:27:52;45.60;;;19.98;;
30818;SDS011;17546;42.674;23.284;2022-12-07T13:30:26;42.45;;;19.88;;
30818;SDS011;17546;42.674;23.284;2022-12-07T13:32:54;41.60;;;20.10;;
30818;SDS011;17546;42.674;23.284;2022-12-07T13:35:29;44.58;;;18.80;;
30818;SDS011;17546;42.674;23.284;2022-12-07T13:38:13;42.85;;;19.73;;
30818;SDS011;17546;42.674;23.284;2022-12-07T13:40:58;37.25;;;18.77;;
30818;SDS011;17546;42.674;23.284;2022-12-07T13:43:45;45.13;;;18.48;;
30818;SDS011;17546;42.674;23.284;2022-12-07T13:46:27;48.00;;;17.77;;
30818;SDS011;17546;42.674;23.284;2022-12-07T13:49:01;50.13;;;17.92;;
30818;SDS011;17546;42.674;23.284;2022-12-07T13:51:27;42.53;;;19.20;;
30818;SDS011;17546;42.674;23.284;2022-12-07T13:53:54;37.90;;;16.50;;
30818;SDS011;17546;42.674;23.284;2022-12-07T13:56:40;37.40;;;15.68;;
30818;SDS011;17546;42.674;23.284;2022-12-07T13:59:12;35.20;;;15.23;;
30818;SDS011;17546;42.674;23.284;2022-12-07T14:01:42;37.50;;;16.02;;
30818;SDS011;17546;42.674;23.284;2022-12-07T14:04:18;32.22;;;15.27;;
30818;SDS011;17546;42.674;23.284;2022-12-07T14:06:52;31.65;;;14.77;;
30818;SDS011;17546;42.674;23.284;2022-12-07T14:09:22;30.00;;;14.60;;
30818;SDS011;17546;42.674;23.284;2022-12-07T14:11:50;40.22;;;14.85;;
30818;SDS011;17546;42.674;23.284;2022-12-07T14:14:18;34.50;;;14.45;;
30818;SDS011;17546;42.674;23.284;2022-12-07T14:16:56;42.00;;;16.90;;
30818;SDS011;17546;42.674;23.284;2022-12-07T14:19:43;37.72;;;15.20;;
30818;SDS011;17546;42.674;23.284;2022-12-07T14:22:15;36.75;;;14.57;;
30818;SDS011;17546;42.674;23.284;2022-12-07T14:24:45;38.78;;;14.63;;
30818;SDS011;17546;42.674;23.284;2022-12-07T14:27:18;34.08;;;14.07;;
30818;SDS011;17546;42.674;23.284;2022-12-07T14:29:50;34.92;;;14.38;;
30818;SDS011;17546;42.674;23.284;2022-12-07T14:32:20;39.00;;;13.98;;
30818;SDS011;17546;42.674;23.284;2022-12-07T14:37:28;35.78;;;14.80;;
30818;SDS011;17546;42.674;23.284;2022-12-07T14:39:55;39.53;;;15.05;;
30818;SDS011;17546;42.674;23.284;2022-12-07T14:42:21;40.20;;;14.50;;
30818;SDS011;17546;42.674;23.284;2022-12-07T14:44:50;37.55;;;14.80;;
30818;SDS011;17546;42.674;23.284;2022-12-07T14:47:15;43.75;;;17.05;;
30818;SDS011;17546;42.674;23.284;2022-12-07T14:49:41;46.88;;;17.30;;
30818;SDS011;17546;42.674;23.284;2022-12-07T14:52:08;47.33;;;16.80;;
30818;SDS011;17546;42.674;23.284;2022-12-07T14:54:40;50.35;;;16.95;;
30818;SDS011;17546;42.674;23.284;2022-12-07T14:57:07;43.22;;;17.50;;
30818;SDS011;17546;42.674;23.284;2022-12-07T14:59:38;42.30;;;16.63;;
30818;SDS011;17546;42.674;23.284;2022-12-07T15:02:03;40.05;;;16.83;;
30818;SDS011;17546;42.674;23.284;2022-12-07T15:04:45;41.03;;;17.08;;
30818;SDS011;17546;42.674;23.284;2022-12-07T15:07:15;43.72;;;17.15;;
30818;SDS011;17546;42.674;23.284;2022-12-07T15:09:44;35.92;;;15.40;;
30818;SDS011;17546;42.674;23.284;2022-12-07T15:12:10;45.83;;;16.92;;
30818;SDS011;17546;42.674;23.284;2022-12-07T15:14:35;41.28;;;17.48;;
30818;SDS011;17546;42.674;23.284;2022-12-07T15:17:01;45.05;;;17.05;;
30818;SDS011;17546;42.674;23.284;2022-12-07T15:19:26;38.67;;;17.02;;
30818;SDS011;17546;42.674;23.284;2022-12-07T15:21:52;34.65;;;16.10;;
30818;SDS011;17546;42.674;23.284;2022-12-07T15:24:18;40.85;;;16.63;;
30818;SDS011;17546;42.674;23.284;2022-12-07T15:26:43;42.70;;;17.63;;
30818;SDS011;17546;42.674;23.284;2022-12-07T15:29:11;41.92;;;16.90;;
30818;SDS011;17546;42.674;23.284;2022-12-07T15:31:37;49.78;;;19.42;;
30818;SDS011;17546;42.674;23.284;2022-12-07T15:34:03;49.60;;;20.05;;
30818;SDS011;17546;42.674;23.284;2022-12-07T15:36:29;68.45;;;23.55;;
30818;SDS011;17546;42.674;23.284;2022-12-07T15:38:56;60.65;;;24.20;;
30818;SDS011;17546;42.674;23.284;2022-12-07T15:41:22;68.43;;;23.48;;
30818;SDS011;17546;42.674;23.284;2022-12-07T15:43:48;58.75;;;24.65;;
30818;SDS011;17546;42.674;23.284;2022-12-07T15:46:33;84.72;;;26.27;;
30818;SDS011;17546;42.674;23.284;2022-12-07T15:49:00;62.03;;;23.13;;
30818;SDS011;17546;42.674;23.284;2022-12-07T15:51:29;67.72;;;25.33;;
30818;SDS011;17546;42.674;23.284;2022-12-07T15:53:56;64.28;;;24.65;;
30818;SDS011;17546;42.674;23.284;2022-12-07T15:56:23;72.20;;;25.10;;
30818;SDS011;17546;42.674;23.284;2022-12-07T15:58:48;74.18;;;24.42;;
30818;SDS011;17546;42.674;23.284;2022-12-07T16:01:14;76.63;;;26.63;;
30818;SDS011;17546;42.674;23.284;2022-12-07T16:03:42;78.45;;;25.67;;
30818;SDS011;17546;42.674;23.284;2022-12-07T16:06:09;63.10;;;25.85;;
30818;SDS011;17546;42.674;23.284;2022-12-07T16:08:35;75.18;;;26.77;;
30818;SDS011;17546;42.674;23.284;2022-12-07T16:11:04;74.35;;;27.83;;
30818;SDS011;17546;42.674;23.284;2022-12-07T16:13:31;78.07;;;28.17;;
30818;SDS011;17546;42.674;23.284;2022-12-07T16:15:56;82.57;;;31.83;;
30818;SDS011;17546;42.674;23.284;2022-12-07T16:18:21;85.90;;;29.52;;
30818;SDS011;17546;42.674;23.284;2022-12-07T16:20:47;79.05;;;29.10;;
30818;SDS011;17546;42.674;23.284;2022-12-07T16:23:14;72.47;;;28.85;;
30818;SDS011;17546;42.674;23.284;2022-12-07T16:25:40;91.05;;;28.50;;
30818;SDS011;17546;42.674;23.284;2022-12-07T16:28:05;86.30;;;31.63;;
30818;SDS011;17546;42.674;23.284;2022-12-07T16:30:31;83.47;;;33.15;;
30818;SDS011;17546;42.674;23.284;2022-12-07T16:32:56;76.88;;;31.50;;
30818;SDS011;17546;42.674;23.284;2022-12-07T16:35:22;80.47;;;32.53;;
30818;SDS011;17546;42.674;23.284;2022-12-07T16:37:47;93.68;;;33.17;;
30818;SDS011;17546;42.674;23.284;2022-12-07T16:40:13;89.60;;;35.42;;
30818;SDS011;17546;42.674;23.284;2022-12-07T16:42:38;92.40;;;36.10;;
30818;SDS011;17546;42.674;23.284;2022-12-07T16:45:04;81.70;;;36.33;;
30818;SDS011;17546;42.674;23.284;2022-12-07T16:47:30;111.30;;;37.58;;
30818;SDS011;17546;42.674;23.284;2022-12-07T16:49:56;85.35;;;34.95;;
30818;SDS011;17546;42.674;23.284;2022-12-07T16:52:21;80.70;;;34.63;;
30818;SDS011;17546;42.674;23.284;2022-12-07T16:54:47;91.25;;;36.90;;
30818;SDS011;17546;42.674;23.284;2022-12-07T16:57:13;92.95;;;36.83;;
30818;SDS011;17546;42.674;23.284;2022-12-07T16:59:39;90.05;;;35.85;;
30818;SDS011;17546;42.674;23.284;2022-12-07T17:02:04;93.95;;;35.78;;
30818;SDS011;17546;42.674;23.284;2022-12-07T17:04:32;90.15;;;36.55;;
30818;SDS011;17546;42.674;23.284;2022-12-07T17:06:58;90.07;;;35.20;;
30818;SDS011;17546;42.674;23.284;2022-12-07T17:09:24;87.05;;;34.10;;
30818;SDS011;17546;42.674;23.284;2022-12-07T17:11:50;89.75;;;34.33;;